sensor_id;sensor_type;location;lat;lon;timestamp;P1;durP1;ratioP1;P2;durP2;ratioP2
24325;SDS011;12448;45.532;5.290;2023-09-30T00:01:55;31.90;;;10.10;;
24325;SDS011;12448;45.532;5.290;2023-09-30T00:04:21;23.02;;;8.07;;
24325;SDS011;12448;45.532;5.290;2023-09-30T00:06:46;26.88;;;8.75;;
24325;SDS011;12448;45.532;5.290;2023-09-30T00:09:12;24.23;;;8.93;;
24325;SDS011;12448;45.532;5.290;2023-09-30T00:11:38;24.85;;;8.73;;
24325;SDS011;12448;45.532;5.290;2023-09-30T00:14:04;27.35;;;8.98;;
24325;SDS011;12448;45.532;5.290;2023-09-30T00:16:30;22.42;;;8.50;;
24325;SDS011;12448;45.532;5.290;2023-09-30T00:18:56;26.52;;;9.55;;
24325;SDS011;12448;45.532;5.290;2023-09-30T00:21:23;25.98;;;8.52;;
24325;SDS011;12448;45.532;5.290;2023-09-30T00:23:49;23.25;;;8.93;;
24325;SDS011;12448;45.532;5.290;2023-09-30T00:26:15;23.50;;;8.75;;
24325;SDS011;12448;45.532;5.290;2023-09-30T00:28:41;25.17;;;10.00;;
24325;SDS011;12448;45.532;5.290;2023-09-30T00:31:07;23.67;;;8.93;;
24325;SDS011;12448;45.532;5.290;2023-09-30T00:33:36;25.52;;;8.88;;
24325;SDS011;12448;45.532;5.290;2023-09-30T00:36:05;23.02;;;8.43;;
24325;SDS011;12448;45.532;5.290;2023-09-30T00:38:32;24.52;;;8.43;;
24325;SDS011;12448;45.532;5.290;2023-09-30T00:44:01;25.63;;;9.25;;
24325;SDS011;12448;45.532;5.290;2023-09-30T00:46:31;22.63;;;8.15;;
24325;SDS011;12448;45.532;5.290;2023-09-30T00:48:58;23.08;;;7.95;;
24325;SDS011;12448;45.532;5.290;2023-09-30T00:51:30;22.25;;;7.60;;
24325;SDS011;12448;45.532;5.290;2023-09-30T00:53:58;23.02;;;8.60;;
24325;SDS011;12448;45.532;5.290;2023-09-30T00:56:26;24.23;;;8.20;;
24325;SDS011;12448;45.532;5.290;2023-09-30T00:59:35;20.95;;;7.70;;
24325;SDS011;12448;45.532;5.290;2023-09-30T01:02:00;22.70;;;8.38;;
24325;SDS011;12448;45.532;5.290;2023-09-30T01:04:30;25.27;;;8.68;;
24325;SDS011;12448;45.532;5.290;2023-09-30T01:06:56;24.88;;;8.60;;
24325;SDS011;12448;45.532;5.290;2023-09-30T01:09:24;22.55;;;8.45;;
24325;SDS011;12448;45.532;5.290;2023-09-30T01:11:50;22.17;;;7.90;;
24325;SDS011;12448;45.532;5.290;2023-09-30T01:14:30;22.65;;;8.60;;
24325;SDS011;12448;45.532;5.290;2023-09-30T01:17:08;24.48;;;8.45;;
24325;SDS011;12448;45.532;5.290;2023-09-30T01:19:36;22.10;;;8.13;;
24325;SDS011;12448;45.532;5.290;2023-09-30T01:22:05;23.48;;;8.68;;
24325;SDS011;12448;45.532;5.290;2023-09-30T01:24:38;30.27;;;9.05;;
24325;SDS011;12448;45.532;5.290;2023-09-30T01:27:05;23.45;;;8.32;;
24325;SDS011;12448;45.532;5.290;2023-09-30T01:29:31;20.15;;;7.80;;
24325;SDS011;12448;45.532;5.290;2023-09-30T01:31:57;25.02;;;8.57;;
24325;SDS011;12448;45.532;5.290;2023-09-30T01:34:23;23.05;;;8.40;;
24325;SDS011;12448;45.532;5.290;2023-09-30T01:36:48;24.42;;;8.65;;
24325;SDS011;12448;45.532;5.290;2023-09-30T01:39:14;21.65;;;7.95;;
24325;SDS011;12448;45.532;5.290;2023-09-30T01:41:40;20.25;;;8.05;;
24325;SDS011;12448;45.532;5.290;2023-09-30T01:44:06;25.17;;;8.68;;
24325;SDS011;12448;45.532;5.290;2023-09-30T01:46:32;22.67;;;8.07;;
24325;SDS011;12448;45.532;5.290;2023-09-30T01:48:58;25.42;;;8.52;;
24325;SDS011;12448;45.532;5.290;2023-09-30T01:51:24;24.77;;;8.20;;
24325;SDS011;12448;45.532;5.290;2023-09-30T01:53:50;25.48;;;8.80;;
24325;SDS011;12448;45.532;5.290;2023-09-30T01:56:15;22.05;;;8.05;;
24325;SDS011;12448;45.532;5.290;2023-09-30T01:58:43;19.92;;;7.93;;
24325;SDS011;12448;45.532;5.290;2023-09-30T02:01:09;20.70;;;8.02;;
24325;SDS011;12448;45.532;5.290;2023-09-30T02:03:35;23.25;;;8.57;;
24325;SDS011;12448;45.532;5.290;2023-09-30T02:06:01;22.13;;;8.40;;
24325;SDS011;12448;45.532;5.290;2023-09-30T02:08:27;24.20;;;8.50;;
24325;SDS011;12448;45.532;5.290;2023-09-30T02:10:52;24.08;;;8.25;;
24325;SDS011;12448;45.532;5.290;2023-09-30T02:13:18;27.55;;;8.52;;
24325;SDS011;12448;45.532;5.290;2023-09-30T02:15:47;25.15;;;8.55;;
24325;SDS011;12448;45.532;5.290;2023-09-30T02:18:13;23.45;;;8.00;;
24325;SDS011;12448;45.532;5.290;2023-09-30T02:20:39;24.00;;;8.60;;
24325;SDS011;12448;45.532;5.290;2023-09-30T02:23:09;21.50;;;7.30;;
24325;SDS011;12448;45.532;5.290;2023-09-30T02:28:13;22.25;;;7.72;;
24325;SDS011;12448;45.532;5.290;2023-09-30T02:30:38;23.80;;;8.40;;
24325;SDS011;12448;45.532;5.290;2023-09-30T02:33:04;21.42;;;8.30;;
24325;SDS011;12448;45.532;5.290;2023-09-30T02:35:32;20.42;;;7.85;;
24325;SDS011;12448;45.532;5.290;2023-09-30T02:37:57;22.77;;;8.02;;
24325;SDS011;12448;45.532;5.290;2023-09-30T02:40:24;19.73;;;7.70;;
24325;SDS011;12448;45.532;5.290;2023-09-30T02:42:50;20.52;;;7.65;;
24325;SDS011;12448;45.532;5.290;2023-09-30T02:45:16;20.67;;;7.95;;
24325;SDS011;12448;45.532;5.290;2023-09-30T02:47:42;22.25;;;8.45;;
24325;SDS011;12448;45.532;5.290;2023-09-30T02:50:08;20.17;;;7.70;;
24325;SDS011;12448;45.532;5.290;2023-09-30T02:52:39;22.00;;;7.30;;
24325;SDS011;12448;45.532;5.290;2023-09-30T02:55:06;26.00;;;8.20;;
24325;SDS011;12448;45.532;5.290;2023-09-30T02:57:41;23.63;;;8.23;;
24325;SDS011;12448;45.532;5.290;2023-09-30T03:00:08;24.20;;;8.27;;
24325;SDS011;12448;45.532;5.290;2023-09-30T03:02:53;23.23;;;8.63;;
24325;SDS011;12448;45.532;5.290;2023-09-30T03:05:19;23.42;;;7.70;;
24325;SDS011;12448;45.532;5.290;2023-09-30T03:07:47;23.38;;;8.68;;
24325;SDS011;12448;45.532;5.290;2023-09-30T03:10:15;22.17;;;8.65;;
24325;SDS011;12448;45.532;5.290;2023-09-30T03:13:00;26.00;;;7.22;;
24325;SDS011;12448;45.532;5.290;2023-09-30T03:15:28;22.38;;;8.15;;
24325;SDS011;12448;45.532;5.290;2023-09-30T03:17:58;25.63;;;8.63;;
24325;SDS011;12448;45.532;5.290;2023-09-30T03:20:24;25.60;;;8.82;;
24325;SDS011;12448;45.532;5.290;2023-09-30T03:22:51;30.90;;;8.90;;
24325;SDS011;12448;45.532;5.290;2023-09-30T03:25:30;24.40;;;8.25;;
24325;SDS011;12448;45.532;5.290;2023-09-30T03:27:56;27.60;;;8.60;;
24325;SDS011;12448;45.532;5.290;2023-09-30T03:30:22;27.77;;;8.82;;
24325;SDS011;12448;45.532;5.290;2023-09-30T03:32:48;23.95;;;8.15;;
24325;SDS011;12448;45.532;5.290;2023-09-30T03:35:13;21.85;;;8.18;;
24325;SDS011;12448;45.532;5.290;2023-09-30T03:37:45;24.05;;;8.52;;
24325;SDS011;12448;45.532;5.290;2023-09-30T03:40:12;25.10;;;8.60;;
24325;SDS011;12448;45.532;5.290;2023-09-30T03:42:44;21.27;;;8.13;;
24325;SDS011;12448;45.532;5.290;2023-09-30T03:45:14;23.08;;;8.35;;
24325;SDS011;12448;45.532;5.290;2023-09-30T03:47:40;20.75;;;8.07;;
24325;SDS011;12448;45.532;5.290;2023-09-30T03:50:07;26.05;;;8.52;;
24325;SDS011;12448;45.532;5.290;2023-09-30T03:52:39;26.57;;;8.17;;
24325;SDS011;12448;45.532;5.290;2023-09-30T03:55:09;26.17;;;8.60;;
24325;SDS011;12448;45.532;5.290;2023-09-30T03:57:39;24.13;;;7.90;;
24325;SDS011;12448;45.532;5.290;2023-09-30T04:00:05;22.65;;;8.63;;
24325;SDS011;12448;45.532;5.290;2023-09-30T04:02:44;24.75;;;8.15;;
24325;SDS011;12448;45.532;5.290;2023-09-30T04:05:23;25.65;;;8.32;;
24325;SDS011;12448;45.532;5.290;2023-09-30T04:08:16;24.73;;;8.02;;
24325;SDS011;12448;45.532;5.290;2023-09-30T04:10:42;22.45;;;7.78;;
24325;SDS011;12448;45.532;5.290;2023-09-30T04:13:09;21.73;;;8.07;;
24325;SDS011;12448;45.532;5.290;2023-09-30T04:15:36;27.27;;;8.85;;
24325;SDS011;12448;45.532;5.290;2023-09-30T04:18:02;26.90;;;8.35;;
24325;SDS011;12448;45.532;5.290;2023-09-30T04:20:34;19.92;;;8.05;;
24325;SDS011;12448;45.532;5.290;2023-09-30T04:23:00;27.17;;;8.50;;
24325;SDS011;12448;45.532;5.290;2023-09-30T04:25:27;24.90;;;8.75;;
24325;SDS011;12448;45.532;5.290;2023-09-30T04:27:53;30.33;;;8.95;;
24325;SDS011;12448;45.532;5.290;2023-09-30T04:30:19;27.30;;;8.75;;
24325;SDS011;12448;45.532;5.290;2023-09-30T04:32:47;24.77;;;8.23;;
24325;SDS011;12448;45.532;5.290;2023-09-30T04:35:13;26.83;;;7.28;;
24325;SDS011;12448;45.532;5.290;2023-09-30T04:37:39;22.42;;;7.80;;
24325;SDS011;12448;45.532;5.290;2023-09-30T04:40:05;23.50;;;7.68;;
24325;SDS011;12448;45.532;5.290;2023-09-30T04:42:40;24.15;;;7.70;;
24325;SDS011;12448;45.532;5.290;2023-09-30T04:45:08;25.60;;;8.38;;
24325;SDS011;12448;45.532;5.290;2023-09-30T04:47:35;26.95;;;8.52;;
24325;SDS011;12448;45.532;5.290;2023-09-30T04:50:01;21.52;;;9.00;;
24325;SDS011;12448;45.532;5.290;2023-09-30T04:52:32;23.92;;;7.97;;
24325;SDS011;12448;45.532;5.290;2023-09-30T04:54:59;24.92;;;8.85;;
24325;SDS011;12448;45.532;5.290;2023-09-30T04:57:29;19.60;;;7.63;;
24325;SDS011;12448;45.532;5.290;2023-09-30T04:59:55;21.63;;;8.45;;
24325;SDS011;12448;45.532;5.290;2023-09-30T05:02:20;27.20;;;8.90;;
24325;SDS011;12448;45.532;5.290;2023-09-30T05:04:47;28.98;;;8.60;;
24325;SDS011;12448;45.532;5.290;2023-09-30T05:07:15;18.98;;;7.55;;
24325;SDS011;12448;45.532;5.290;2023-09-30T05:09:41;24.55;;;8.88;;
24325;SDS011;12448;45.532;5.290;2023-09-30T05:12:07;21.63;;;7.75;;
24325;SDS011;12448;45.532;5.290;2023-09-30T05:14:35;28.70;;;8.77;;
24325;SDS011;12448;45.532;5.290;2023-09-30T05:17:01;25.38;;;9.02;;
24325;SDS011;12448;45.532;5.290;2023-09-30T05:19:29;25.70;;;8.45;;
24325;SDS011;12448;45.532;5.290;2023-09-30T05:21:56;24.85;;;8.57;;
24325;SDS011;12448;45.532;5.290;2023-09-30T05:24:22;23.60;;;7.63;;
24325;SDS011;12448;45.532;5.290;2023-09-30T05:26:48;25.52;;;8.27;;
24325;SDS011;12448;45.532;5.290;2023-09-30T05:29:14;24.25;;;8.32;;
24325;SDS011;12448;45.532;5.290;2023-09-30T05:31:39;21.33;;;8.60;;
24325;SDS011;12448;45.532;5.290;2023-09-30T05:34:05;24.02;;;8.13;;
24325;SDS011;12448;45.532;5.290;2023-09-30T05:36:31;23.92;;;8.43;;
24325;SDS011;12448;45.532;5.290;2023-09-30T05:38:56;23.60;;;7.93;;
24325;SDS011;12448;45.532;5.290;2023-09-30T05:41:22;24.05;;;8.10;;
24325;SDS011;12448;45.532;5.290;2023-09-30T05:43:48;26.25;;;8.38;;
24325;SDS011;12448;45.532;5.290;2023-09-30T05:46:14;24.88;;;9.25;;
24325;SDS011;12448;45.532;5.290;2023-09-30T05:48:41;22.70;;;8.77;;
24325;SDS011;12448;45.532;5.290;2023-09-30T05:51:07;19.85;;;7.95;;
24325;SDS011;12448;45.532;5.290;2023-09-30T05:53:32;26.17;;;8.10;;
24325;SDS011;12448;45.532;5.290;2023-09-30T05:56:01;22.90;;;7.80;;
24325;SDS011;12448;45.532;5.290;2023-09-30T05:58:27;22.15;;;7.75;;
24325;SDS011;12448;45.532;5.290;2023-09-30T06:00:55;23.50;;;7.88;;
24325;SDS011;12448;45.532;5.290;2023-09-30T06:03:21;23.00;;;8.02;;
24325;SDS011;12448;45.532;5.290;2023-09-30T06:05:50;20.55;;;8.38;;
24325;SDS011;12448;45.532;5.290;2023-09-30T06:08:15;21.58;;;8.10;;
24325;SDS011;12448;45.532;5.290;2023-09-30T06:10:41;26.73;;;7.75;;
24325;SDS011;12448;45.532;5.290;2023-09-30T06:13:21;25.02;;;7.82;;
24325;SDS011;12448;45.532;5.290;2023-09-30T06:19:20;25.35;;;9.07;;
24325;SDS011;12448;45.532;5.290;2023-09-30T06:21:49;21.15;;;7.95;;
24325;SDS011;12448;45.532;5.290;2023-09-30T06:24:25;24.67;;;8.73;;
24325;SDS011;12448;45.532;5.290;2023-09-30T06:26:54;19.98;;;7.95;;
24325;SDS011;12448;45.532;5.290;2023-09-30T06:29:25;21.83;;;8.00;;
24325;SDS011;12448;45.532;5.290;2023-09-30T06:31:57;22.07;;;8.33;;
24325;SDS011;12448;45.532;5.290;2023-09-30T06:34:28;28.02;;;8.48;;
24325;SDS011;12448;45.532;5.290;2023-09-30T06:37:14;20.77;;;7.78;;
24325;SDS011;12448;45.532;5.290;2023-09-30T06:39:40;25.20;;;8.93;;
24325;SDS011;12448;45.532;5.290;2023-09-30T06:42:06;23.25;;;8.13;;
24325;SDS011;12448;45.532;5.290;2023-09-30T06:44:32;23.80;;;7.95;;
24325;SDS011;12448;45.532;5.290;2023-09-30T06:47:17;25.42;;;8.98;;
24325;SDS011;12448;45.532;5.290;2023-09-30T06:49:58;26.08;;;7.70;;
24325;SDS011;12448;45.532;5.290;2023-09-30T06:52:25;32.58;;;9.20;;
24325;SDS011;12448;45.532;5.290;2023-09-30T06:54:52;25.70;;;8.73;;
24325;SDS011;12448;45.532;5.290;2023-09-30T06:57:18;23.13;;;7.90;;
24325;SDS011;12448;45.532;5.290;2023-09-30T06:59:53;23.45;;;8.65;;
24325;SDS011;12448;45.532;5.290;2023-09-30T07:02:20;26.00;;;8.68;;
24325;SDS011;12448;45.532;5.290;2023-09-30T07:04:48;23.42;;;8.25;;
24325;SDS011;12448;45.532;5.290;2023-09-30T07:07:17;31.25;;;8.68;;
24325;SDS011;12448;45.532;5.290;2023-09-30T07:09:43;27.10;;;9.35;;
24325;SDS011;12448;45.532;5.290;2023-09-30T07:12:15;26.58;;;7.95;;
24325;SDS011;12448;45.532;5.290;2023-09-30T07:15:02;25.73;;;8.27;;
24325;SDS011;12448;45.532;5.290;2023-09-30T07:18:16;20.65;;;8.70;;
24325;SDS011;12448;45.532;5.290;2023-09-30T07:23:53;23.48;;;8.15;;
24325;SDS011;12448;45.532;5.290;2023-09-30T07:26:24;28.02;;;8.85;;
24325;SDS011;12448;45.532;5.290;2023-09-30T07:28:53;25.08;;;8.30;;
24325;SDS011;12448;45.532;5.290;2023-09-30T07:31:40;23.60;;;9.45;;
24325;SDS011;12448;45.532;5.290;2023-09-30T07:34:34;25.02;;;8.45;;
24325;SDS011;12448;45.532;5.290;2023-09-30T07:37:00;28.50;;;8.48;;
24325;SDS011;12448;45.532;5.290;2023-09-30T07:39:26;24.63;;;8.15;;
24325;SDS011;12448;45.532;5.290;2023-09-30T07:41:58;24.10;;;8.88;;
24325;SDS011;12448;45.532;5.290;2023-09-30T07:44:23;24.30;;;8.55;;
24325;SDS011;12448;45.532;5.290;2023-09-30T07:46:53;22.67;;;8.13;;
24325;SDS011;12448;45.532;5.290;2023-09-30T07:49:33;22.40;;;7.57;;
24325;SDS011;12448;45.532;5.290;2023-09-30T07:52:00;26.25;;;7.93;;
24325;SDS011;12448;45.532;5.290;2023-09-30T07:54:25;21.77;;;8.30;;
24325;SDS011;12448;45.532;5.290;2023-09-30T07:57:03;26.73;;;8.38;;
24325;SDS011;12448;45.532;5.290;2023-09-30T07:59:52;25.38;;;8.90;;
24325;SDS011;12448;45.532;5.290;2023-09-30T08:02:23;24.52;;;7.32;;
24325;SDS011;12448;45.532;5.290;2023-09-30T08:05:01;24.98;;;8.75;;
24325;SDS011;12448;45.532;5.290;2023-09-30T08:07:27;24.58;;;8.43;;
24325;SDS011;12448;45.532;5.290;2023-09-30T08:09:53;23.08;;;9.05;;
24325;SDS011;12448;45.532;5.290;2023-09-30T08:12:19;22.38;;;7.78;;
24325;SDS011;12448;45.532;5.290;2023-09-30T08:14:45;23.45;;;8.73;;
24325;SDS011;12448;45.532;5.290;2023-09-30T08:17:10;19.48;;;7.65;;
24325;SDS011;12448;45.532;5.290;2023-09-30T08:19:52;25.63;;;8.30;;
24325;SDS011;12448;45.532;5.290;2023-09-30T08:22:26;23.27;;;7.95;;
24325;SDS011;12448;45.532;5.290;2023-09-30T08:25:12;20.48;;;7.30;;
24325;SDS011;12448;45.532;5.290;2023-09-30T08:27:53;23.60;;;8.57;;
24325;SDS011;12448;45.532;5.290;2023-09-30T08:30:41;24.35;;;8.13;;
24325;SDS011;12448;45.532;5.290;2023-09-30T08:33:33;21.10;;;8.15;;
24325;SDS011;12448;45.532;5.290;2023-09-30T08:36:01;21.83;;;7.90;;
24325;SDS011;12448;45.532;5.290;2023-09-30T08:41:33;20.85;;;7.38;;
24325;SDS011;12448;45.532;5.290;2023-09-30T08:44:34;21.40;;;8.02;;
24325;SDS011;12448;45.532;5.290;2023-09-30T08:47:01;19.92;;;6.90;;
24325;SDS011;12448;45.532;5.290;2023-09-30T08:49:28;23.75;;;7.25;;
24325;SDS011;12448;45.532;5.290;2023-09-30T08:52:07;21.08;;;7.47;;
24325;SDS011;12448;45.532;5.290;2023-09-30T08:54:34;16.42;;;7.03;;
24325;SDS011;12448;45.532;5.290;2023-09-30T08:57:23;21.50;;;7.82;;
24325;SDS011;12448;45.532;5.290;2023-09-30T08:59:52;22.88;;;7.32;;
24325;SDS011;12448;45.532;5.290;2023-09-30T09:05:05;18.20;;;6.82;;
24325;SDS011;12448;45.532;5.290;2023-09-30T09:07:51;23.02;;;8.10;;
24325;SDS011;12448;45.532;5.290;2023-09-30T09:10:17;21.13;;;7.55;;
24325;SDS011;12448;45.532;5.290;2023-09-30T09:12:43;25.33;;;7.85;;
24325;SDS011;12448;45.532;5.290;2023-09-30T09:15:22;18.45;;;7.32;;
24325;SDS011;12448;45.532;5.290;2023-09-30T09:17:50;22.58;;;7.78;;
24325;SDS011;12448;45.532;5.290;2023-09-30T09:20:18;19.10;;;7.43;;
24325;SDS011;12448;45.532;5.290;2023-09-30T09:22:48;21.50;;;7.72;;
24325;SDS011;12448;45.532;5.290;2023-09-30T09:25:23;18.77;;;7.38;;
24325;SDS011;12448;45.532;5.290;2023-09-30T09:27:49;22.40;;;7.43;;
24325;SDS011;12448;45.532;5.290;2023-09-30T09:30:25;23.20;;;7.45;;
24325;SDS011;12448;45.532;5.290;2023-09-30T09:32:52;19.85;;;6.80;;
24325;SDS011;12448;45.532;5.290;2023-09-30T09:35:25;23.92;;;7.90;;
24325;SDS011;12448;45.532;5.290;2023-09-30T09:38:05;19.65;;;7.05;;
24325;SDS011;12448;45.532;5.290;2023-09-30T09:40:33;21.08;;;7.07;;
24325;SDS011;12448;45.532;5.290;2023-09-30T09:43:05;19.88;;;7.35;;
24325;SDS011;12448;45.532;5.290;2023-09-30T09:45:33;18.65;;;6.60;;
24325;SDS011;12448;45.532;5.290;2023-09-30T09:47:59;17.85;;;7.13;;
24325;SDS011;12448;45.532;5.290;2023-09-30T09:50:25;16.40;;;6.40;;
24325;SDS011;12448;45.532;5.290;2023-09-30T09:52:52;18.05;;;7.05;;
24325;SDS011;12448;45.532;5.290;2023-09-30T09:57:51;18.70;;;7.05;;
24325;SDS011;12448;45.532;5.290;2023-09-30T10:00:20;21.05;;;7.15;;
24325;SDS011;12448;45.532;5.290;2023-09-30T10:02:48;15.50;;;6.57;;
24325;SDS011;12448;45.532;5.290;2023-09-30T10:05:15;17.02;;;6.65;;
24325;SDS011;12448;45.532;5.290;2023-09-30T10:07:47;21.55;;;7.30;;
24325;SDS011;12448;45.532;5.290;2023-09-30T10:10:22;17.70;;;6.45;;
24325;SDS011;12448;45.532;5.290;2023-09-30T10:12:49;15.63;;;6.28;;
24325;SDS011;12448;45.532;5.290;2023-09-30T10:20:29;21.55;;;7.00;;
24325;SDS011;12448;45.532;5.290;2023-09-30T10:26:32;21.17;;;7.25;;
24325;SDS011;12448;45.532;5.290;2023-09-30T10:28:45;20.23;;;6.93;;
24325;SDS011;12448;45.532;5.290;2023-09-30T10:31:17;15.93;;;6.93;;
24325;SDS011;12448;45.532;5.290;2023-09-30T10:36:33;19.20;;;7.35;;
24325;SDS011;12448;45.532;5.290;2023-09-30T10:39:15;17.73;;;6.68;;
24325;SDS011;12448;45.532;5.290;2023-09-30T10:42:49;18.92;;;6.97;;
24325;SDS011;12448;45.532;5.290;2023-09-30T10:48:49;20.02;;;7.03;;
24325;SDS011;12448;45.532;5.290;2023-09-30T10:51:17;17.50;;;6.35;;
24325;SDS011;12448;45.532;5.290;2023-09-30T10:53:47;19.77;;;7.30;;
24325;SDS011;12448;45.532;5.290;2023-09-30T10:56:32;18.80;;;7.47;;
24325;SDS011;12448;45.532;5.290;2023-09-30T11:06:01;18.38;;;6.88;;
24325;SDS011;12448;45.532;5.290;2023-09-30T11:08:30;15.45;;;6.72;;
24325;SDS011;12448;45.532;5.290;2023-09-30T11:10:58;17.35;;;6.38;;
24325;SDS011;12448;45.532;5.290;2023-09-30T11:13:30;13.80;;;6.47;;
24325;SDS011;12448;45.532;5.290;2023-09-30T11:16:01;15.15;;;6.30;;
24325;SDS011;12448;45.532;5.290;2023-09-30T11:18:35;14.73;;;6.57;;
24325;SDS011;12448;45.532;5.290;2023-09-30T11:21:37;16.40;;;7.22;;
24325;SDS011;12448;45.532;5.290;2023-09-30T11:23:56;17.80;;;6.77;;
24325;SDS011;12448;45.532;5.290;2023-09-30T11:26:34;14.85;;;6.35;;
24325;SDS011;12448;45.532;5.290;2023-09-30T11:29:10;19.90;;;6.55;;
24325;SDS011;12448;45.532;5.290;2023-09-30T11:31:38;18.85;;;6.88;;
24325;SDS011;12448;45.532;5.290;2023-09-30T11:34:08;17.40;;;5.70;;
24325;SDS011;12448;45.532;5.290;2023-09-30T11:36:38;15.93;;;5.88;;
24325;SDS011;12448;45.532;5.290;2023-09-30T11:41:47;16.15;;;6.25;;
24325;SDS011;12448;45.532;5.290;2023-09-30T11:44:23;18.08;;;6.88;;
24325;SDS011;12448;45.532;5.290;2023-09-30T11:46:52;18.40;;;8.02;;
24325;SDS011;12448;45.532;5.290;2023-09-30T11:52:12;18.23;;;8.05;;
24325;SDS011;12448;45.532;5.290;2023-09-30T11:54:43;22.02;;;8.07;;
24325;SDS011;12448;45.532;5.290;2023-09-30T11:57:16;17.50;;;7.57;;
24325;SDS011;12448;45.532;5.290;2023-09-30T11:59:46;20.13;;;8.38;;
24325;SDS011;12448;45.532;5.290;2023-09-30T12:02:15;18.38;;;7.43;;
24325;SDS011;12448;45.532;5.290;2023-09-30T12:04:46;30.58;;;8.90;;
24325;SDS011;12448;45.532;5.290;2023-09-30T12:07:12;23.60;;;9.00;;
24325;SDS011;12448;45.532;5.290;2023-09-30T12:09:38;21.20;;;8.77;;
24325;SDS011;12448;45.532;5.290;2023-09-30T12:12:04;19.67;;;8.27;;
24325;SDS011;12448;45.532;5.290;2023-09-30T12:14:36;23.40;;;8.60;;
24325;SDS011;12448;45.532;5.290;2023-09-30T12:17:02;20.83;;;7.95;;
24325;SDS011;12448;45.532;5.290;2023-09-30T12:19:27;19.27;;;8.20;;
24325;SDS011;12448;45.532;5.290;2023-09-30T12:21:56;24.90;;;9.27;;
24325;SDS011;12448;45.532;5.290;2023-09-30T12:24:24;19.25;;;8.15;;
24325;SDS011;12448;45.532;5.290;2023-09-30T12:26:50;22.27;;;9.05;;
24325;SDS011;12448;45.532;5.290;2023-09-30T12:29:19;22.27;;;8.90;;
24325;SDS011;12448;45.532;5.290;2023-09-30T12:31:50;20.40;;;8.82;;
24325;SDS011;12448;45.532;5.290;2023-09-30T12:34:17;21.38;;;9.30;;
24325;SDS011;12448;45.532;5.290;2023-09-30T12:36:43;17.77;;;8.45;;
24325;SDS011;12448;45.532;5.290;2023-09-30T12:39:09;21.63;;;9.38;;
24325;SDS011;12448;45.532;5.290;2023-09-30T12:41:39;20.30;;;9.18;;
24325;SDS011;12448;45.532;5.290;2023-09-30T12:44:07;19.85;;;8.38;;
24325;SDS011;12448;45.532;5.290;2023-09-30T12:46:33;17.52;;;8.35;;
24325;SDS011;12448;45.532;5.290;2023-09-30T12:49:01;19.90;;;8.32;;
24325;SDS011;12448;45.532;5.290;2023-09-30T12:51:28;19.20;;;8.18;;
24325;SDS011;12448;45.532;5.290;2023-09-30T12:53:54;20.73;;;9.25;;
24325;SDS011;12448;45.532;5.290;2023-09-30T12:56:20;21.65;;;8.80;;
24325;SDS011;12448;45.532;5.290;2023-09-30T12:58:46;22.73;;;8.13;;
24325;SDS011;12448;45.532;5.290;2023-09-30T13:01:11;19.33;;;8.70;;
24325;SDS011;12448;45.532;5.290;2023-09-30T13:03:37;20.88;;;8.70;;
24325;SDS011;12448;45.532;5.290;2023-09-30T13:06:03;21.77;;;8.80;;
24325;SDS011;12448;45.532;5.290;2023-09-30T13:08:29;18.73;;;8.07;;
24325;SDS011;12448;45.532;5.290;2023-09-30T13:11:02;21.88;;;9.10;;
24325;SDS011;12448;45.532;5.290;2023-09-30T13:13:29;18.65;;;8.45;;
24325;SDS011;12448;45.532;5.290;2023-09-30T13:16:01;19.02;;;8.85;;
24325;SDS011;12448;45.532;5.290;2023-09-30T13:18:30;19.23;;;7.97;;
24325;SDS011;12448;45.532;5.290;2023-09-30T13:20:56;20.77;;;9.43;;
24325;SDS011;12448;45.532;5.290;2023-09-30T13:23:22;20.58;;;9.25;;
24325;SDS011;12448;45.532;5.290;2023-09-30T13:25:48;20.55;;;8.98;;
24325;SDS011;12448;45.532;5.290;2023-09-30T13:28:13;20.58;;;9.18;;
24325;SDS011;12448;45.532;5.290;2023-09-30T13:30:39;22.58;;;9.88;;
24325;SDS011;12448;45.532;5.290;2023-09-30T13:33:05;20.15;;;8.77;;
24325;SDS011;12448;45.532;5.290;2023-09-30T13:35:31;19.52;;;8.80;;
24325;SDS011;12448;45.532;5.290;2023-09-30T13:37:57;22.02;;;9.57;;
24325;SDS011;12448;45.532;5.290;2023-09-30T13:40:23;20.85;;;9.52;;
24325;SDS011;12448;45.532;5.290;2023-09-30T13:42:49;19.92;;;8.43;;
24325;SDS011;12448;45.532;5.290;2023-09-30T13:45:14;23.25;;;9.70;;
24325;SDS011;12448;45.532;5.290;2023-09-30T13:47:42;21.85;;;9.98;;
24325;SDS011;12448;45.532;5.290;2023-09-30T13:50:08;19.92;;;9.10;;
24325;SDS011;12448;45.532;5.290;2023-09-30T13:52:35;20.77;;;9.45;;
24325;SDS011;12448;45.532;5.290;2023-09-30T13:55:01;23.38;;;9.57;;
24325;SDS011;12448;45.532;5.290;2023-09-30T13:57:28;22.52;;;9.07;;
24325;SDS011;12448;45.532;5.290;2023-09-30T13:59:53;18.10;;;8.85;;
24325;SDS011;12448;45.532;5.290;2023-09-30T14:02:19;22.67;;;9.05;;
24325;SDS011;12448;45.532;5.290;2023-09-30T14:04:45;18.83;;;8.55;;
24325;SDS011;12448;45.532;5.290;2023-09-30T14:07:10;21.27;;;8.98;;
24325;SDS011;12448;45.532;5.290;2023-09-30T14:09:36;22.42;;;8.90;;
24325;SDS011;12448;45.532;5.290;2023-09-30T14:12:02;23.45;;;9.10;;
24325;SDS011;12448;45.532;5.290;2023-09-30T14:14:32;21.70;;;9.60;;
24325;SDS011;12448;45.532;5.290;2023-09-30T14:16:59;20.85;;;9.32;;
24325;SDS011;12448;45.532;5.290;2023-09-30T14:19:24;22.08;;;9.00;;
24325;SDS011;12448;45.532;5.290;2023-09-30T14:21:50;22.48;;;9.13;;
24325;SDS011;12448;45.532;5.290;2023-09-30T14:24:16;23.83;;;9.07;;
24325;SDS011;12448;45.532;5.290;2023-09-30T14:26:42;25.13;;;8.55;;
24325;SDS011;12448;45.532;5.290;2023-09-30T14:29:09;23.08;;;9.07;;
24325;SDS011;12448;45.532;5.290;2023-09-30T14:31:37;21.27;;;9.73;;
24325;SDS011;12448;45.532;5.290;2023-09-30T14:34:03;19.92;;;8.30;;
24325;SDS011;12448;45.532;5.290;2023-09-30T14:36:30;22.40;;;9.82;;
24325;SDS011;12448;45.532;5.290;2023-09-30T14:38:58;20.65;;;9.55;;
24325;SDS011;12448;45.532;5.290;2023-09-30T14:41:24;21.10;;;9.55;;
24325;SDS011;12448;45.532;5.290;2023-09-30T14:43:50;19.75;;;9.20;;
24325;SDS011;12448;45.532;5.290;2023-09-30T14:46:15;21.63;;;9.20;;
24325;SDS011;12448;45.532;5.290;2023-09-30T14:48:41;21.13;;;8.88;;
24325;SDS011;12448;45.532;5.290;2023-09-30T14:51:11;21.55;;;8.48;;
24325;SDS011;12448;45.532;5.290;2023-09-30T14:53:37;22.13;;;9.75;;
24325;SDS011;12448;45.532;5.290;2023-09-30T14:56:02;20.70;;;8.93;;
24325;SDS011;12448;45.532;5.290;2023-09-30T14:58:28;18.23;;;8.45;;
24325;SDS011;12448;45.532;5.290;2023-09-30T15:00:54;23.85;;;9.18;;
24325;SDS011;12448;45.532;5.290;2023-09-30T15:03:20;19.00;;;8.60;;
24325;SDS011;12448;45.532;5.290;2023-09-30T15:05:48;23.33;;;9.18;;
24325;SDS011;12448;45.532;5.290;2023-09-30T15:08:21;15.98;;;8.30;;
24325;SDS011;12448;45.532;5.290;2023-09-30T15:10:47;19.65;;;9.07;;
24325;SDS011;12448;45.532;5.290;2023-09-30T15:13:13;19.30;;;8.73;;
24325;SDS011;12448;45.532;5.290;2023-09-30T15:15:39;22.45;;;8.70;;
24325;SDS011;12448;45.532;5.290;2023-09-30T15:18:04;24.70;;;8.63;;
24325;SDS011;12448;45.532;5.290;2023-09-30T15:20:30;21.65;;;9.20;;
24325;SDS011;12448;45.532;5.290;2023-09-30T15:23:02;20.75;;;8.07;;
24325;SDS011;12448;45.532;5.290;2023-09-30T15:25:27;17.58;;;8.00;;
24325;SDS011;12448;45.532;5.290;2023-09-30T15:27:54;17.70;;;8.50;;
24325;SDS011;12448;45.532;5.290;2023-09-30T15:30:19;23.65;;;7.97;;
24325;SDS011;12448;45.532;5.290;2023-09-30T15:32:48;19.63;;;8.23;;
24325;SDS011;12448;45.532;5.290;2023-09-30T15:35:14;18.40;;;8.27;;